Time;durP1;ratioP1;P1;durP2;ratioP2;P2;SDS_P1;SDS_P2;PMS_P1;PMS_P2;Temp;Humidity;BMP_temperature;BMP_pressure;BME280_temperature;BME280_humidity;BME280_pressure;Samples;Min_cycle;Max_cycle;Signal;HPM_P1;HPM_P2
2021/10/20 00:00:12;;;;;;;58.23;2.77;;;8.90;1.00;;;;;;5071596;28;20912;-74
2021/10/20 00:02:41;;;;;;;58.03;2.70;;;8.80;1.00;;;;;;5071519;28;20450;-74
2021/10/20 00:05:10;;;;;;;58.37;3.10;;;8.80;1.00;;;;;;5070868;28;20459;-74
2021/10/20 00:07:37;;;;;;;58.20;2.70;;;8.80;1.00;;;;;;5071198;28;20449;-74
2021/10/20 00:10:04;;;;;;;58.00;2.70;;;8.80;1.00;;;;;;5071264;28;20557;-74
2021/10/20 00:12:32;;;;;;;57.87;2.67;;;8.70;1.00;;;;;;5071719;28;20827;-74
2021/10/20 00:14:59;;;;;;;58.07;2.70;;;8.70;1.00;;;;;;5071438;28;20531;-74
2021/10/20 00:17:26;;;;;;;58.23;2.70;;;8.70;1.00;;;;;;5075452;28;20445;-74
2021/10/20 00:19:57;;;;;;;58.37;3.00;;;8.60;1.00;;;;;;5075303;28;20578;-74
2021/10/20 00:22:25;;;;;;;57.97;2.70;;;8.60;1.00;;;;;;5075891;28;20454;-74
2021/10/20 00:24:52;;;;;;;58.47;2.90;;;8.60;1.00;;;;;;5073865;28;20459;-74
2021/10/20 00:27:20;;;;;;;58.67;3.10;;;8.50;1.00;;;;;;5075025;28;20537;-73
2021/10/20 00:29:47;;;;;;;58.07;2.87;;;8.50;1.00;;;;;;5075403;28;20471;-73
2021/10/20 00:32:13;;;;;;;58.40;2.83;;;8.50;1.00;;;;;;5075197;28;20539;-73
2021/10/20 00:34:40;;;;;;;58.33;2.77;;;8.50;1.00;;;;;;5075727;28;20460;-73
2021/10/20 00:37:07;;;;;;;57.97;2.70;;;8.50;1.00;;;;;;5075416;28;20683;-73
2021/10/20 00:39:36;;;;;;;58.27;2.80;;;8.50;1.00;;;;;;5075280;28;20849;-73
2021/10/20 00:42:03;;;;;;;58.23;2.90;;;8.40;1.00;;;;;;5075473;28;20541;-73
2021/10/20 00:44:30;;;;;;;58.17;2.90;;;8.40;1.00;;;;;;5075420;28;20614;-73
2021/10/20 00:46:56;;;;;;;58.37;2.67;;;8.40;1.00;;;;;;5074740;28;20458;-73
2021/10/20 00:49:23;;;;;;;58.23;2.73;;;8.40;1.00;;;;;;5075416;28;20989;-73
2021/10/20 00:51:50;;;;;;;58.27;2.80;;;8.30;1.00;;;;;;5075238;28;20536;-73
2021/10/20 00:54:17;;;;;;;58.37;2.87;;;8.30;1.00;;;;;;5075385;28;20491;-73
2021/10/20 00:56:45;;;;;;;58.17;2.47;;;8.30;1.00;;;;;;5074610;28;20972;-73
2021/10/20 00:59:12;;;;;;;58.07;2.83;;;8.30;1.00;;;;;;5074926;28;20557;-73
2021/10/20 01:01:39;;;;;;;58.90;3.10;;;8.20;1.00;;;;;;5075224;28;21047;-73
2021/10/20 01:04:06;;;;;;;58.37;2.80;;;8.20;1.00;;;;;;5074944;28;20953;-73
2021/10/20 01:06:34;;;;;;;59.03;3.93;;;8.20;1.00;;;;;;5074365;28;20957;-73
2021/10/20 01:09:01;;;;;;;58.87;3.60;;;8.20;1.00;;;;;;5074814;28;20835;-73
2021/10/20 01:11:28;;;;;;;58.20;2.93;;;8.10;1.00;;;;;;5074821;28;20938;-73
2021/10/20 01:13:56;;;;;;;58.47;2.80;;;8.10;1.00;;;;;;5074606;28;20482;-73
2021/10/20 01:16:23;;;;;;;58.13;2.80;;;8.00;1.00;;;;;;5074654;28;20528;-73
2021/10/20 01:18:51;;;;;;;58.17;2.77;;;8.00;1.00;;;;;;5074805;28;20914;-73
2021/10/20 01:21:22;;;;;;;58.37;2.80;;;8.00;1.00;;;;;;5074592;28;20929;-73
2021/10/20 01:23:50;;;;;;;58.30;2.90;;;8.00;1.00;;;;;;5074599;28;20457;-73
2021/10/20 01:26:17;;;;;;;58.23;2.87;;;8.00;1.00;;;;;;5074271;28;20504;-73
2021/10/20 01:28:45;;;;;;;58.90;3.00;;;7.90;1.00;;;;;;5074693;28;20476;-73
2021/10/20 01:31:13;;;;;;;58.70;3.50;;;7.80;1.00;;;;;;5074704;28;20441;-73
2021/10/20 01:33:40;;;;;;;58.20;2.60;;;7.80;1.00;;;;;;5074492;28;20892;-73
2021/10/20 01:36:06;;;;;;;58.30;2.73;;;7.80;1.00;;;;;;5073751;28;21018;-73
2021/10/20 01:38:35;;;;;;;58.15;3.22;;;7.80;1.00;;;;;;5073098;28;20452;-73
2021/10/20 01:41:02;;;;;;;58.35;2.90;;;7.80;1.00;;;;;;5074390;28;20337;-73
2021/10/20 01:43:36;;;;;;;58.27;2.73;;;7.80;1.00;;;;;;5074306;28;20261;-73
2021/10/20 01:46:03;;;;;;;62.20;3.20;;;7.80;1.00;;;;;;5073921;28;20495;-73
2021/10/20 01:48:29;;;;;;;58.20;2.80;;;7.70;1.00;;;;;;5074143;28;20453;-73
2021/10/20 01:50:56;;;;;;;58.30;2.70;;;7.70;1.00;;;;;;5073969;28;20855;-74
2021/10/20 01:53:23;;;;;;;58.50;3.17;;;7.70;1.00;;;;;;5074335;28;20863;-73
2021/10/20 01:55:51;;;;;;;58.00;2.83;;;7.70;1.00;;;;;;5073646;28;20549;-73
2021/10/20 01:58:18;;;;;;;58.47;2.90;;;7.70;1.00;;;;;;5074192;28;20449;-73
2021/10/20 02:00:45;;;;;;;58.28;3.03;;;7.70;1.00;;;;;;5073806;28;20669;-73
2021/10/20 02:03:12;;;;;;;58.17;2.80;;;7.80;1.00;;;;;;5073784;28;20291;-73
2021/10/20 02:05:39;;;;;;;61.67;2.97;;;7.80;3.40;;;;;;5073511;28;20485;-73
2021/10/20 02:08:06;;;;;;;58.33;2.90;;;7.80;6.20;;;;;;5073896;28;20238;-73
2021/10/20 02:10:33;;;;;;;58.33;2.73;;;7.80;7.60;;;;;;5073800;28;20325;-73
2021/10/20 02:13:01;;;;;;;58.38;3.00;;;7.80;8.60;;;;;;5073709;28;20534;-73
2021/10/20 02:15:28;;;;;;;58.10;2.90;;;7.90;10.50;;;;;;5073324;28;20205;-73
2021/10/20 02:17:55;;;;;;;59.00;3.43;;;7.90;11.90;;;;;;5073625;28;20476;-73
2021/10/20 02:20:21;;;;;;;58.47;2.85;;;7.90;13.60;;;;;;5073364;28;21067;-73
2021/10/20 02:22:48;;;;;;;58.80;2.80;;;7.90;15.60;;;;;;5073549;28;20206;-73
2021/10/20 02:25:15;;;;;;;58.27;3.00;;;7.90;17.70;;;;;;5073233;28;21002;-73
2021/10/20 02:27:43;;;;;;;58.33;3.00;;;7.90;18.00;;;;;;5072968;28;20539;-73
2021/10/20 02:30:12;;;;;;;58.33;2.87;;;7.90;18.70;;;;;;5073354;28;20588;-73
2021/10/20 02:32:39;;;;;;;58.33;2.83;;;7.90;19.30;;;;;;5073192;28;20553;-73
2021/10/20 02:35:08;;;;;;;58.07;2.73;;;7.90;19.80;;;;;;5073151;28;20539;-73
2021/10/20 02:37:34;;;;;;;58.65;3.13;;;7.90;19.90;;;;;;5073078;28;20881;-73
2021/10/20 02:40:01;;;;;;;58.28;2.83;;;7.90;19.70;;;;;;5072631;28;20317;-73
2021/10/20 02:42:28;;;;;;;58.47;2.83;;;7.90;19.90;;;;;;5073224;28;20207;-73
2021/10/20 02:44:55;;;;;;;58.38;3.00;;;7.90;19.30;;;;;;5072877;28;20216;-73
2021/10/20 02:47:23;;;;;;;58.45;3.10;;;7.90;18.90;;;;;;5072839;28;20201;-73
2021/10/20 02:49:50;;;;;;;58.27;2.80;;;7.80;18.20;;;;;;5073147;28;20260;-73
2021/10/20 02:52:18;;;;;;;58.27;2.80;;;7.80;18.10;;;;;;5073023;28;20449;-73
2021/10/20 02:54:45;;;;;;;58.38;2.97;;;7.80;17.90;;;;;;5072919;28;20457;-73
2021/10/20 02:57:12;;;;;;;58.17;2.90;;;7.80;17.70;;;;;;5072991;28;20313;-73
2021/10/20 02:59:39;;;;;;;58.55;3.10;;;7.80;16.60;;;;;;5072654;28;20324;-73
2021/10/20 03:02:06;;;;;;;58.03;2.80;;;7.80;15.90;;;;;;5072761;28;20380;-73
2021/10/20 03:04:34;;;;;;;58.27;2.97;;;7.70;15.30;;;;;;5072747;28;20548;-73
2021/10/20 03:07:01;;;;;;;58.50;3.57;;;7.70;14.90;;;;;;5072539;28;20544;-73
2021/10/20 03:09:28;;;;;;;58.53;3.15;;;7.70;14.30;;;;;;5072424;28;20503;-73
2021/10/20 03:11:55;;;;;;;58.38;3.05;;;7.70;14.00;;;;;;5072707;28;20203;-73
2021/10/20 03:14:22;;;;;;;58.30;2.97;;;7.70;13.20;;;;;;5073008;28;20704;-73
2021/10/20 03:16:48;;;;;;;60.27;3.43;;;7.60;12.60;;;;;;5072199;28;20543;-73
2021/10/20 03:19:15;;;;;;;58.15;2.80;;;7.60;12.60;;;;;;5072170;28;20993;-73
2021/10/20 03:21:44;;;;;;;58.38;3.00;;;7.60;11.70;;;;;;5072150;28;20801;-73
2021/10/20 03:24:11;;;;;;;58.47;3.20;;;7.60;11.70;;;;;;5072651;28;20201;-73
2021/10/20 03:26:38;;;;;;;58.37;3.27;;;7.60;10.60;;;;;;5071868;28;20292;-73
2021/10/20 03:29:05;;;;;;;58.17;2.78;;;7.50;9.30;;;;;;5072307;28;20997;-73
2021/10/20 03:31:32;;;;;;;58.70;2.90;;;7.50;9.10;;;;;;5072356;28;20197;-73
2021/10/20 03:33:59;;;;;;;58.43;2.90;;;7.50;8.30;;;;;;5072306;28;20750;-73
2021/10/20 03:36:26;;;;;;;58.60;2.90;;;7.50;8.50;;;;;;5071799;28;20509;-73
2021/10/20 03:38:54;;;;;;;60.70;5.03;;;7.40;8.10;;;;;;5071954;28;20313;-73
2021/10/20 03:41:21;;;;;;;58.25;2.80;;;7.40;8.00;;;;;;5071904;28;20491;-73
2021/10/20 03:43:48;;;;;;;58.27;2.80;;;7.40;7.40;;;;;;5072224;28;20205;-73
2021/10/20 03:46:15;;;;;;;58.40;2.80;;;7.30;7.10;;;;;;5071599;28;20968;-73
2021/10/20 03:48:42;;;;;;;58.07;2.67;;;7.30;7.20;;;;;;5071972;28;20228;-73
2021/10/20 03:51:09;;;;;;;58.80;3.20;;;7.30;7.00;;;;;;5071186;28;20539;-73
2021/10/20 03:53:36;;;;;;;58.25;2.63;;;7.30;7.90;;;;;;5071756;28;20249;-73
2021/10/20 03:56:05;;;;;;;58.28;2.80;;;7.30;8.10;;;;;;5071474;28;20299;-73
2021/10/20 03:58:31;;;;;;;58.28;3.00;;;7.30;9.60;;;;;;5071775;28;20682;-73
2021/10/20 04:00:58;;;;;;;58.17;2.80;;;7.30;10.50;;;;;;5071916;28;20645;-73
2021/10/20 04:03:25;;;;;;;58.45;2.88;;;7.30;11.20;;;;;;5071819;28;20598;-73
2021/10/20 04:05:52;;;;;;;58.23;2.70;;;7.30;11.60;;;;;;5071308;28;20737;-73
2021/10/20 04:08:19;;;;;;;58.27;2.80;;;7.30;11.60;;;;;;5071806;28;20484;-73
2021/10/20 04:10:46;;;;;;;58.15;2.90;;;7.30;12.00;;;;;;5071868;28;20528;-73
2021/10/20 04:13:14;;;;;;;58.17;2.60;;;7.30;12.00;;;;;;5071951;28;20610;-73
2021/10/20 04:15:41;;;;;;;58.17;2.70;;;7.30;11.60;;;;;;5071707;28;20543;-73
2021/10/20 04:18:08;;;;;;;58.07;2.60;;;7.30;11.50;;;;;;5071811;28;20536;-73
2021/10/20 04:20:35;;;;;;;58.07;2.60;;;7.30;11.30;;;;;;5071488;28;20552;-73
2021/10/20 04:23:01;;;;;;;58.20;2.70;;;7.30;10.90;;;;;;5071410;28;20452;-73
2021/10/20 04:25:28;;;;;;;58.38;2.90;;;7.30;10.60;;;;;;5071636;28;20456;-73
2021/10/20 04:27:55;;;;;;;58.30;2.63;;;7.30;10.30;;;;;;5071720;28;20305;-73
2021/10/20 04:30:24;;;;;;;58.90;3.20;;;7.30;10.00;;;;;;5071562;28;20225;-73
2021/10/20 04:32:51;;;;;;;58.50;2.80;;;7.30;8.80;;;;;;5071615;28;20223;-73
2021/10/20 04:35:22;;;;;;;58.42;2.70;;;7.30;8.00;;;;;;5071545;28;20297;-73
2021/10/20 04:37:49;;;;;;;58.38;2.70;;;7.20;7.60;;;;;;5071725;28;20237;-73
2021/10/20 04:40:16;;;;;;;58.17;2.90;;;7.20;7.60;;;;;;5071565;28;20320;-73
2021/10/20 04:42:43;;;;;;;58.53;2.97;;;7.20;6.90;;;;;;5071638;28;20232;-73
2021/10/20 04:45:10;;;;;;;58.38;3.00;;;7.20;6.60;;;;;;5071507;28;20558;-73
2021/10/20 04:47:38;;;;;;;58.30;2.90;;;7.10;6.20;;;;;;5071316;28;20329;-73
2021/10/20 04:50:08;;;;;;;58.57;2.90;;;7.10;6.00;;;;;;5071221;28;20505;-73
2021/10/20 04:52:36;;;;;;;58.05;2.78;;;7.10;6.10;;;;;;5071276;28;20944;-73
2021/10/20 04:55:04;;;;;;;57.97;2.80;;;7.10;6.00;;;;;;5071366;28;20212;-73
2021/10/20 04:57:30;;;;;;;58.27;2.90;;;7.10;6.10;;;;;;5071097;28;20307;-73
2021/10/20 04:59:57;;;;;;;58.40;2.85;;;7.10;6.10;;;;;;5071810;28;20554;-73
2021/10/20 05:02:24;;;;;;;58.25;2.75;;;7.00;5.80;;;;;;5073216;28;20312;-73
2021/10/20 05:04:52;;;;;;;58.27;2.70;;;7.00;5.80;;;;;;5075008;28;20331;-73
2021/10/20 05:07:19;;;;;;;58.07;2.63;;;7.00;6.00;;;;;;5074769;28;20535;-73
2021/10/20 05:09:49;;;;;;;58.25;2.67;;;7.00;5.80;;;;;;5074834;28;20504;-73
2021/10/20 05:12:17;;;;;;;59.00;3.05;;;7.00;5.90;;;;;;5074872;28;20300;-73
2021/10/20 05:14:43;;;;;;;58.28;2.88;;;7.00;6.80;;;;;;5075088;28;20216;-73
2021/10/20 05:17:10;;;;;;;57.97;2.70;;;7.00;6.40;;;;;;5074442;28;20292;-74
2021/10/20 05:19:37;;;;;;;58.17;2.70;;;7.00;5.50;;;;;;5075023;28;20923;-74
2021/10/20 05:22:07;;;;;;;58.40;2.80;;;6.90;5.30;;;;;;5074907;28;20490;-74
2021/10/20 05:24:34;;;;;;;58.25;2.70;;;6.90;5.60;;;;;;5074819;28;20211;-74
2021/10/20 05:27:01;;;;;;;58.60;3.10;;;6.90;5.80;;;;;;5074270;28;20213;-74
2021/10/20 05:29:32;;;;;;;58.25;2.67;;;6.90;6.20;;;;;;5074565;28;20232;-74
2021/10/20 05:31:59;;;;;;;58.45;2.80;;;6.90;6.00;;;;;;5074305;28;20217;-73
2021/10/20 05:34:26;;;;;;;58.17;2.77;;;6.90;6.50;;;;;;5074502;28;20303;-74
2021/10/20 05:36:53;;;;;;;58.40;2.78;;;6.90;6.40;;;;;;5074194;28;20454;-74
2021/10/20 05:39:21;;;;;;;58.35;2.90;;;6.90;6.50;;;;;;5074408;28;20320;-74
2021/10/20 05:41:50;;;;;;;58.58;3.17;;;6.90;7.10;;;;;;5074620;28;20223;-74
2021/10/20 05:44:17;;;;;;;58.35;2.80;;;6.90;7.50;;;;;;5074093;28;20235;-74
2021/10/20 05:46:45;;;;;;;58.38;2.90;;;6.90;7.50;;;;;;5073952;28;20212;-74
2021/10/20 05:49:12;;;;;;;58.50;2.90;;;6.90;7.70;;;;;;5074256;28;20347;-74
2021/10/20 05:51:39;;;;;;;58.17;2.80;;;6.90;8.60;;;;;;5074156;28;20257;-73
2021/10/20 05:54:06;;;;;;;58.15;2.80;;;6.90;9.90;;;;;;5074131;28;20457;-74
2021/10/20 05:56:34;;;;;;;58.17;3.00;;;6.90;10.60;;;;;;5073744;28;20207;-74
2021/10/20 05:59:03;;;;;;;58.30;2.90;;;7.00;11.10;;;;;;5073983;28;20280;-74
2021/10/20 06:01:30;;;;;;;58.20;2.93;;;7.00;11.20;;;;;;5074102;28;20271;-74
2021/10/20 06:03:58;;;;;;;58.50;2.70;;;7.00;11.00;;;;;;5074158;28;20796;-74
2021/10/20 06:06:25;;;;;;;58.17;2.80;;;7.00;11.10;;;;;;5073522;28;20256;-74
2021/10/20 06:08:52;;;;;;;58.37;2.90;;;7.00;11.50;;;;;;5073980;28;20244;-74
2021/10/20 06:11:19;;;;;;;58.40;2.80;;;7.00;11.80;;;;;;5073568;28;20952;-74
2021/10/20 06:13:47;;;;;;;58.25;2.60;;;7.00;12.00;;;;;;5073240;28;20201;-74
2021/10/20 06:16:14;;;;;;;58.85;3.85;;;7.00;11.80;;;;;;5073555;28;20210;-74
2021/10/20 06:18:41;;;;;;;58.28;2.70;;;7.00;12.00;;;;;;5073452;28;20226;-74
2021/10/20 06:21:08;;;;;;;58.50;3.00;;;7.10;12.20;;;;;;5073770;28;20216;-74
2021/10/20 06:23:35;;;;;;;58.17;2.63;;;7.10;12.30;;;;;;5073490;28;20216;-74
2021/10/20 06:26:02;;;;;;;58.17;2.80;;;7.10;12.50;;;;;;5072969;28;20296;-74
2021/10/20 06:28:29;;;;;;;58.27;2.40;;;7.10;12.50;;;;;;5073474;28;20477;-74
2021/10/20 06:30:57;;;;;;;58.07;2.70;;;7.10;12.50;;;;;;5073450;28;20496;-74
2021/10/20 06:33:24;;;;;;;58.17;2.72;;;7.20;12.90;;;;;;5073461;28;20487;-74
2021/10/20 06:35:51;;;;;;;58.50;3.27;;;7.20;14.00;;;;;;5072862;28;20859;-74
2021/10/20 06:38:18;;;;;;;58.08;2.45;;;7.30;14.00;;;;;;5073098;28;20494;-74
2021/10/20 06:40:45;;;;;;;58.07;2.67;;;7.30;14.40;;;;;;5073077;28;20298;-74
2021/10/20 06:43:12;;;;;;;58.40;2.80;;;7.30;14.10;;;;;;5073087;28;20489;-73
2021/10/20 06:45:38;;;;;;;58.30;2.60;;;7.30;14.10;;;;;;5072854;28;20297;-74
2021/10/20 06:48:07;;;;;;;58.10;2.67;;;7.40;14.00;;;;;;5073161;28;20233;-74
2021/10/20 06:50:35;;;;;;;58.17;2.77;;;7.40;14.00;;;;;;5072825;28;21059;-74
2021/10/20 06:53:02;;;;;;;57.93;2.80;;;7.40;13.90;;;;;;5072867;28;20491;-74
2021/10/20 06:55:28;;;;;;;57.97;2.63;;;7.40;13.80;;;;;;5072598;28;20498;-74
2021/10/20 06:57:56;;;;;;;58.03;2.80;;;7.50;14.40;;;;;;5072739;28;20977;-74
2021/10/20 07:00:23;;;;;;;58.03;2.83;;;7.60;15.40;;;;;;5072831;28;20548;-74
2021/10/20 07:02:50;;;;;;;58.97;2.80;;;7.60;16.10;;;;;;5072894;28;20318;-74
2021/10/20 07:05:18;;;;;;;58.30;2.90;;;7.70;17.20;;;;;;5072513;28;20461;-74
2021/10/20 07:07:45;;;;;;;58.03;2.90;;;7.80;18.10;;;;;;5072258;28;20298;-73
2021/10/20 07:10:12;;;;;;;58.17;2.70;;;7.90;19.90;;;;;;5072618;28;20553;-72
2021/10/20 07:12:39;;;;;;;57.87;2.60;;;8.00;21.50;;;;;;5072578;28;21024;-72
2021/10/20 07:15:07;;;;;;;58.13;2.70;;;8.10;23.20;;;;;;5072494;28;20540;-73
2021/10/20 07:17:33;;;;;;;58.03;2.80;;;8.20;24.90;;;;;;5072056;28;20961;-72
2021/10/20 07:20:00;;;;;;;57.97;3.07;;;8.30;25.40;;;;;;5072161;28;20470;-73
2021/10/20 07:22:29;;;;;;;58.07;2.63;;;8.40;26.10;;;;;;5072248;28;20545;-73
2021/10/20 07:24:56;;;;;;;58.70;3.15;;;8.50;27.00;;;;;;5072315;28;20522;-73
2021/10/20 07:27:25;;;;;;;58.17;2.67;;;8.60;27.40;;;;;;5072038;28;20207;-72
2021/10/20 07:29:52;;;;;;;58.17;3.20;;;8.70;27.70;;;;;;5072144;28;20841;-73
2021/10/20 07:32:19;;;;;;;57.87;2.83;;;8.80;28.20;;;;;;5072063;28;20926;-73
2021/10/20 07:34:45;;;;;;;58.43;3.20;;;8.90;27.80;;;;;;5071826;28;20492;-72
2021/10/20 07:37:12;;;;;;;58.43;2.90;;;9.10;28.20;;;;;;5072148;28;20460;-72
2021/10/20 07:39:41;;;;;;;57.87;2.50;;;9.20;28.60;;;;;;5072127;28;20551;-73
2021/10/20 07:42:08;;;;;;;58.07;3.10;;;9.40;28.20;;;;;;5071944;28;20488;-73
2021/10/20 07:44:34;;;;;;;58.30;2.90;;;9.50;27.20;;;;;;5071948;28;20487;-72
2021/10/20 07:47:01;;;;;;;57.97;2.70;;;9.70;27.20;;;;;;5067511;28;20530;-70
2021/10/20 07:49:28;;;;;;;58.30;2.87;;;9.90;26.60;;;;;;5071354;28;20545;-71
2021/10/20 07:51:57;;;;;;;58.27;2.90;;;10.10;16.90;;;;;;5071798;28;20478;-69
2021/10/20 07:54:24;;;;;;;57.87;2.80;;;10.20;13.50;;;;;;5071517;28;20480;-69
2021/10/20 07:56:53;;;;;;;58.07;2.73;;;10.40;3.60;;;;;;5071414;28;20540;-71
2021/10/20 07:59:21;;;;;;;58.17;2.90;;;10.50;1.00;;;;;;5071332;28;20496;-71
2021/10/20 08:01:48;;;;;;;58.30;3.00;;;10.70;1.00;;;;;;5071167;28;20490;-69
2021/10/20 08:04:15;;;;;;;58.30;2.90;;;10.80;1.00;;;;;;5071571;28;20538;-69
2021/10/20 08:06:42;;;;;;;58.17;2.80;;;11.00;1.00;;;;;;5070971;28;21056;-72
2021/10/20 08:09:09;;;;;;;58.07;2.80;;;11.10;1.00;;;;;;5071618;28;20471;-71
2021/10/20 08:11:36;;;;;;;58.17;2.90;;;11.30;1.00;;;;;;5070670;28;20443;-70
2021/10/20 08:14:04;;;;;;;58.03;2.60;;;11.50;1.00;;;;;;5071544;28;20479;-70
2021/10/20 08:16:31;;;;;;;58.07;2.60;;;11.70;1.00;;;;;;5071249;28;20461;-71
2021/10/20 08:18:58;;;;;;;58.47;3.33;;;11.90;1.00;;;;;;5071966;28;20471;-71
2021/10/20 08:21:25;;;;;;;58.07;2.70;;;12.10;1.00;;;;;;5074946;28;20923;-71
2021/10/20 08:23:52;;;;;;;58.70;3.10;;;12.40;1.00;;;;;;5079046;28;21090;-72
2021/10/20 08:26:19;;;;;;;58.27;2.80;;;12.60;1.00;;;;;;5077409;28;20463;-73
2021/10/20 08:28:46;;;;;;;57.87;2.67;;;12.90;1.00;;;;;;5078531;28;21021;-72
2021/10/20 08:31:14;;;;;;;58.07;2.90;;;13.20;1.00;;;;;;5077284;28;20539;-73
2021/10/20 08:33:42;;;;;;;58.17;2.80;;;13.50;1.00;;;;;;5078266;28;20491;-71
2021/10/20 08:36:09;;;;;;;58.17;2.80;;;13.80;1.00;;;;;;5078685;28;20462;-73
2021/10/20 08:38:36;;;;;;;58.20;2.97;;;14.10;1.00;;;;;;5077256;28;20443;-71
2021/10/20 08:41:04;;;;;;;58.50;3.00;;;14.40;1.00;;;;;;5075394;28;20475;-72
2021/10/20 08:43:31;;;;;;;57.57;2.60;;;14.70;1.00;;;;;;5075231;28;20570;-69
2021/10/20 08:45:58;;;;;;;57.97;2.60;;;15.00;1.00;;;;;;5074900;28;21030;-69
2021/10/20 08:48:29;;;;;;;57.40;2.80;;;15.20;1.00;;;;;;5074805;28;20527;-70
2021/10/20 08:51:00;;;;;;;58.17;2.90;;;15.40;1.00;;;;;;5075028;28;20932;-70
2021/10/20 08:53:28;;;;;;;58.03;2.80;;;15.50;1.00;;;;;;5074842;28;20453;-70
2021/10/20 08:55:55;;;;;;;59.07;2.90;;;15.70;1.00;;;;;;5074693;28;20451;-70
2021/10/20 08:58:23;;;;;;;57.67;2.50;;;15.80;1.00;;;;;;5075137;28;20554;-69
2021/10/20 09:00:50;;;;;;;57.90;2.47;;;16.10;1.00;;;;;;5075297;28;20481;-70
2021/10/20 09:03:17;;;;;;;58.13;2.70;;;16.30;1.00;;;;;;5075083;28;20571;-70
2021/10/20 09:05:45;;;;;;;58.50;3.20;;;16.50;1.00;;;;;;5074660;28;20536;-71
2021/10/20 09:08:13;;;;;;;57.97;2.33;;;16.60;1.00;;;;;;5074411;28;20541;-70
2021/10/20 09:10:40;;;;;;;59.10;2.60;;;16.80;1.00;;;;;;5074482;28;21008;-72
2021/10/20 09:13:07;;;;;;;57.77;2.30;;;17.10;1.00;;;;;;5074510;28;20976;-71
2021/10/20 09:15:37;;;;;;;57.83;2.50;;;17.40;1.00;;;;;;5074374;28;20454;-71
2021/10/20 09:18:07;;;;;;;58.10;2.80;;;17.70;1.00;;;;;;5074855;28;20524;-72
2021/10/20 09:20:36;;;;;;;58.17;2.60;;;18.00;1.00;;;;;;5075004;28;20467;-71
2021/10/20 09:23:10;;;;;;;58.60;3.10;;;18.20;1.00;;;;;;5074301;28;20565;-72
2021/10/20 09:25:43;;;;;;;57.83;2.27;;;18.40;1.00;;;;;;5074370;28;20541;-71
2021/10/20 09:28:14;;;;;;;57.77;2.70;;;18.70;1.00;;;;;;5074578;28;20541;-72
2021/10/20 09:30:42;;;;;;;58.17;2.40;;;18.90;1.00;;;;;;5074531;28;20550;-71
2021/10/20 09:33:10;;;;;;;57.73;2.20;;;19.10;1.00;;;;;;5073909;28;20828;-72
2021/10/20 09:35:37;;;;;;;57.87;2.60;;;19.50;1.00;;;;;;5073218;28;20443;-72
2021/10/20 09:38:04;;;;;;;58.07;2.60;;;19.70;1.00;;;;;;5074695;28;20483;-71
2021/10/20 09:40:39;;;;;;;58.03;2.03;;;19.80;1.00;;;;;;5074361;28;21051;-71
2021/10/20 09:43:08;;;;;;;58.30;3.43;;;19.90;1.00;;;;;;5074516;28;20511;-72
2021/10/20 09:45:38;;;;;;;58.17;2.40;;;20.20;1.00;;;;;;5074012;28;20452;-72
2021/10/20 09:48:17;;;;;;;57.97;2.47;;;20.70;1.00;;;;;;5072492;28;20490;-72
2021/10/20 09:51:04;;;;;;;57.67;2.30;;;21.10;1.00;;;;;;5072958;28;20545;-71
2021/10/20 09:53:32;;;;;;;58.17;2.50;;;21.20;1.00;;;;;;5073591;28;20946;-71
2021/10/20 09:56:03;;;;;;;57.67;2.43;;;21.20;1.00;;;;;;5073707;28;20541;-72
2021/10/20 09:58:32;;;;;;;57.97;2.37;;;21.50;1.00;;;;;;5073300;28;20539;-72
2021/10/20 10:01:01;;;;;;;57.70;2.20;;;21.80;1.00;;;;;;5074058;28;20557;-71
2021/10/20 10:03:28;;;;;;;57.57;2.20;;;22.20;1.00;;;;;;5073959;28;20487;-70
2021/10/20 10:05:55;;;;;;;58.20;2.50;;;22.50;1.00;;;;;;5073446;28;20534;-70
2021/10/20 10:08:21;;;;;;;57.57;1.97;;;22.50;1.00;;;;;;5073354;28;20447;-71
2021/10/20 10:10:49;;;;;;;57.87;2.40;;;22.80;1.00;;;;;;5072999;28;20493;-71
2021/10/20 10:13:24;;;;;;;58.60;2.50;;;23.40;1.00;;;;;;5073435;28;20466;-70
2021/10/20 10:15:51;;;;;;;58.20;2.47;;;23.90;1.00;;;;;;5073213;28;20541;-71
2021/10/20 10:18:19;;;;;;;58.40;2.50;;;24.30;1.00;;;;;;5073623;28;20530;-71
2021/10/20 10:20:46;;;;;;;57.90;2.30;;;24.70;1.00;;;;;;5073626;28;20555;-70
2021/10/20 10:23:20;;;;;;;57.77;2.23;;;24.80;1.00;;;;;;5073399;28;20511;-71
2021/10/20 10:25:56;;;;;;;58.37;2.60;;;25.10;1.00;;;;;;5072991;28;20475;-70
2021/10/20 10:28:26;;;;;;;58.40;2.20;;;25.30;1.00;;;;;;5073054;28;20600;-71
2021/10/20 10:30:55;;;;;;;58.20;2.30;;;25.50;1.00;;;;;;5072788;28;20536;-70
2021/10/20 10:33:24;;;;;;;57.57;2.17;;;25.50;1.00;;;;;;5072877;28;20549;-71
2021/10/20 10:36:10;;;;;;;57.70;2.20;;;25.40;1.00;;;;;;5072774;28;20487;-71
2021/10/20 10:38:40;;;;;;;58.17;2.27;;;25.10;1.00;;;;;;5072638;28;20490;-71
2021/10/20 10:41:21;;;;;;;57.47;2.30;;;25.00;1.00;;;;;;5073354;28;20494;-71
2021/10/20 10:44:21;;;;;;;57.60;2.23;;;24.60;1.00;;;;;;5058283;28;20575;-70
2021/10/20 10:47:03;;;;;;;57.67;2.17;;;24.20;1.00;;;;;;5052879;28;20904;-69
2021/10/20 10:49:34;;;;;;;57.77;2.03;;;24.20;1.00;;;;;;5052675;28;20468;-69
2021/10/20 10:52:15;;;;;;;58.30;2.97;;;24.20;1.00;;;;;;5052641;28;20543;-72
2021/10/20 10:55:08;;;;;;;57.87;2.37;;;24.70;1.00;;;;;;5052122;28;20766;-71
2021/10/20 10:57:45;;;;;;;58.17;2.27;;;25.90;1.00;;;;;;5063752;28;20954;-72
2021/10/20 11:00:31;;;;;;;58.00;2.60;;;27.10;1.00;;;;;;5072333;28;20545;-71
2021/10/20 11:02:59;;;;;;;57.47;2.10;;;27.00;1.00;;;;;;5068643;28;20779;-72
2021/10/20 11:05:27;;;;;;;57.73;2.13;;;26.70;1.00;;;;;;5059601;28;20459;-71
2021/10/20 11:08:01;;;;;;;57.50;2.30;;;27.00;1.00;;;;;;5052782;28;20550;-71
2021/10/20 11:10:28;;;;;;;57.97;2.17;;;27.40;1.00;;;;;;5052090;28;20504;-71
2021/10/20 11:12:57;;;;;;;63.70;3.90;;;27.20;1.00;;;;;;5052294;28;20440;-72
2021/10/20 11:15:26;;;;;;;57.60;2.30;;;26.80;1.00;;;;;;5051530;28;20546;-71
2021/10/20 11:17:55;;;;;;;57.40;2.40;;;27.00;1.00;;;;;;5052645;28;20539;-71
2021/10/20 11:20:23;;;;;;;57.53;2.40;;;27.60;1.00;;;;;;5052220;28;20473;-72
2021/10/20 11:22:52;;;;;;;57.87;2.50;;;27.70;1.00;;;;;;5052301;28;20936;-71
2021/10/20 11:25:20;;;;;;;57.80;2.30;;;27.60;1.00;;;;;;5052201;28;20996;-72
2021/10/20 11:27:48;;;;;;;57.47;2.10;;;28.20;1.00;;;;;;5052026;28;20535;-71
2021/10/20 11:30:17;;;;;;;57.37;2.20;;;29.20;1.00;;;;;;5051701;28;20581;-70
2021/10/20 11:32:46;;;;;;;57.57;2.30;;;30.20;1.00;;;;;;5051929;28;20715;-69
2021/10/20 11:35:19;;;;;;;57.47;2.10;;;30.70;1.00;;;;;;5051963;28;20494;-69
2021/10/20 11:37:52;;;;;;;57.47;2.10;;;31.00;1.00;;;;;;5050485;28;20460;-69
2021/10/20 11:40:20;;;;;;;57.50;2.20;;;31.30;1.00;;;;;;5051928;28;20522;-69
2021/10/20 11:42:47;;;;;;;57.27;2.10;;;31.80;1.00;;;;;;5051917;28;20487;-69
2021/10/20 11:45:14;;;;;;;57.33;2.10;;;32.10;1.00;;;;;;5051757;28;20820;-69
2021/10/20 11:47:43;;;;;;;57.57;2.10;;;32.20;1.00;;;;;;5051624;28;20462;-69
2021/10/20 11:50:14;;;;;;;57.70;2.33;;;31.70;1.00;;;;;;5051372;28;20478;-69
2021/10/20 11:52:41;;;;;;;57.47;2.30;;;31.40;1.00;;;;;;5051449;28;20456;-70
2021/10/20 11:55:10;;;;;;;57.70;2.10;;;31.40;1.00;;;;;;5051349;28;20530;-71
2021/10/20 11:57:42;;;;;;;57.40;2.03;;;31.70;1.00;;;;;;5051319;28;20459;-70
2021/10/20 12:00:10;;;;;;;57.17;1.97;;;31.60;1.00;;;;;;5051846;28;20907;-71
2021/10/20 12:02:37;;;;;;;57.37;1.90;;;31.70;1.00;;;;;;5051888;28;20490;-70
2021/10/20 12:05:05;;;;;;;57.30;2.00;;;32.00;1.00;;;;;;5051496;28;20579;-70
2021/10/20 12:07:33;;;;;;;58.20;2.40;;;31.20;1.00;;;;;;5051109;28;20450;-70
2021/10/20 12:10:04;;;;;;;57.53;2.27;;;30.00;1.00;;;;;;5058489;28;20478;-70
2021/10/20 12:12:32;;;;;;;57.33;2.10;;;29.50;1.00;;;;;;5070466;28;20458;-70
2021/10/20 12:15:00;;;;;;;57.47;2.00;;;29.00;1.00;;;;;;5071408;28;20547;-70
2021/10/20 12:17:28;;;;;;;58.00;2.30;;;28.70;1.00;;;;;;5070956;28;20540;-70
2021/10/20 12:19:57;;;;;;;57.73;2.10;;;28.80;1.00;;;;;;5071477;28;20967;-70
2021/10/20 12:22:25;;;;;;;57.50;2.30;;;28.80;1.00;;;;;;5071885;28;20458;-70
2021/10/20 12:24:55;;;;;;;57.87;2.67;;;28.70;1.00;;;;;;5071317;28;20522;-70
2021/10/20 12:27:25;;;;;;;57.37;2.03;;;28.70;1.00;;;;;;5071561;28;20526;-70
2021/10/20 12:29:54;;;;;;;57.70;2.10;;;28.80;1.00;;;;;;5071425;28;20903;-70
2021/10/20 12:32:23;;;;;;;57.67;2.10;;;28.80;1.00;;;;;;5071043;28;20458;-70
2021/10/20 12:34:55;;;;;;;57.37;2.00;;;28.90;1.00;;;;;;5071081;28;20452;-70
2021/10/20 12:37:26;;;;;;;57.67;2.10;;;28.80;1.00;;;;;;5071089;28;20447;-71
2021/10/20 12:39:54;;;;;;;57.53;2.00;;;28.40;1.00;;;;;;5071625;28;20558;-72
2021/10/20 12:42:22;;;;;;;57.70;2.10;;;27.80;1.00;;;;;;5057404;28;20811;-72
2021/10/20 12:44:49;;;;;;;57.67;2.20;;;27.10;1.00;;;;;;5051709;28;20497;-72
2021/10/20 12:47:20;;;;;;;57.67;2.40;;;26.40;1.00;;;;;;5051164;28;20473;-69
2021/10/20 12:49:50;;;;;;;57.63;2.00;;;25.80;1.00;;;;;;5052764;28;20906;-70
2021/10/20 12:52:20;;;;;;;57.90;2.50;;;25.20;1.00;;;;;;5051136;28;20798;-70
2021/10/20 12:54:51;;;;;;;57.77;2.40;;;24.70;1.00;;;;;;5052197;28;20456;-70